Time;durP1;ratioP1;P1;durP2;ratioP2;P2;SDS_P1;SDS_P2;PMS_P1;PMS_P2;Temp;Humidity;BMP_temperature;BMP_pressure;BME280_temperature;BME280_humidity;BME280_pressure;Samples;Min_cycle;Max_cycle;Signal;HPM_P1;HPM_P2
2023/04/24 00:01:43;;;;;;;14.10;8.27;;;10.70;99.90;;;;;;5092878;28;20388;-80
2023/04/24 00:04:10;;;;;;;11.90;7.80;;;10.70;99.90;;;;;;5093885;28;20059;-80
2023/04/24 00:06:37;;;;;;;13.45;8.35;;;10.70;99.90;;;;;;5093792;28;20093;-80
2023/04/24 00:09:03;;;;;;;10.93;8.13;;;10.80;99.90;;;;;;5093697;28;20132;-80
2023/04/24 00:11:29;;;;;;;12.38;7.57;;;10.70;99.90;;;;;;5092420;28;20079;-80
2023/04/24 00:13:56;;;;;;;11.68;7.63;;;10.70;99.90;;;;;;5093780;28;20047;-80
2023/04/24 00:16:22;;;;;;;12.00;7.47;;;10.70;99.90;;;;;;5092741;28;20131;-80
2023/04/24 00:18:48;;;;;;;13.93;7.80;;;10.70;99.90;;;;;;5093442;28;20036;-80
2023/04/24 00:21:17;;;;;;;12.23;7.93;;;10.60;99.90;;;;;;5093760;28;20066;-80
2023/04/24 00:23:43;;;;;;;11.77;7.70;;;10.70;99.90;;;;;;5092188;28;20044;-80
2023/04/24 00:26:09;;;;;;;11.35;7.90;;;10.70;99.90;;;;;;5096697;28;20097;-80
2023/04/24 00:28:35;;;;;;;10.90;7.57;;;10.70;99.90;;;;;;5097624;28;20047;-80
2023/04/24 00:31:01;;;;;;;12.05;7.88;;;10.80;99.90;;;;;;5097756;28;20040;-80
2023/04/24 00:33:26;;;;;;;14.50;8.25;;;10.70;99.90;;;;;;5097763;28;20048;-80
2023/04/24 00:35:52;;;;;;;12.43;7.55;;;10.70;99.90;;;;;;5097464;28;20083;-80
2023/04/24 00:38:18;;;;;;;12.13;8.35;;;10.70;99.90;;;;;;5097495;28;20044;-80
2023/04/24 00:40:44;;;;;;;11.50;7.60;;;10.70;99.90;;;;;;5097586;28;20115;-80
2023/04/24 00:43:10;;;;;;;11.68;8.10;;;10.70;99.90;;;;;;5097558;28;20083;-80
2023/04/24 00:45:36;;;;;;;11.02;7.53;;;10.70;99.90;;;;;;5097389;28;20456;-80
2023/04/24 00:48:02;;;;;;;11.50;7.50;;;10.60;99.90;;;;;;5097581;28;20526;-80
2023/04/24 00:50:29;;;;;;;12.23;9.10;;;10.70;99.90;;;;;;5097467;28;20491;-81
2023/04/24 00:52:54;;;;;;;11.98;7.07;;;10.70;99.90;;;;;;5096280;28;20087;-80
2023/04/24 00:55:20;;;;;;;12.45;8.45;;;10.70;99.90;;;;;;5096275;28;20075;-81
2023/04/24 00:57:47;;;;;;;11.90;7.70;;;10.70;99.90;;;;;;5097079;28;20047;-81
2023/04/24 01:00:14;;;;;;;11.70;8.35;;;10.70;99.90;;;;;;5097107;28;20399;-80
2023/04/24 01:02:44;;;;;;;11.85;8.43;;;10.70;99.90;;;;;;5095753;28;20051;-80
2023/04/24 01:05:12;;;;;;;11.48;8.10;;;10.70;99.90;;;;;;5097209;28;20170;-80
2023/04/24 01:07:39;;;;;;;11.68;8.80;;;10.70;99.90;;;;;;5097093;28;20056;-80
2023/04/24 01:10:05;;;;;;;11.70;8.30;;;10.70;99.90;;;;;;5097073;28;20111;-80
2023/04/24 01:12:32;;;;;;;12.00;7.95;;;10.60;99.90;;;;;;5096997;28;20118;-80
2023/04/24 01:14:57;;;;;;;11.93;8.20;;;10.70;99.90;;;;;;5096914;28;20487;-80
2023/04/24 01:17:23;;;;;;;14.63;8.60;;;10.70;99.90;;;;;;5096873;28;20037;-80
2023/04/24 01:19:49;;;;;;;16.92;8.73;;;10.60;99.90;;;;;;5096898;28;20043;-80
2023/04/24 01:22:16;;;;;;;14.05;8.55;;;10.70;99.90;;;;;;5096636;28;20036;-81
2023/04/24 01:24:42;;;;;;;12.85;8.82;;;10.60;99.90;;;;;;5095499;28;20090;-80
2023/04/24 01:27:10;;;;;;;13.35;9.18;;;10.60;99.90;;;;;;5096625;28;20042;-80
2023/04/24 01:29:36;;;;;;;11.43;8.13;;;10.60;99.90;;;;;;5096635;28;20071;-80
2023/04/24 01:32:03;;;;;;;12.93;9.52;;;10.60;99.90;;;;;;5096640;28;20079;-81
2023/04/24 01:34:30;;;;;;;12.18;8.45;;;10.60;99.90;;;;;;5096593;28;20090;-80
2023/04/24 01:36:56;;;;;;;11.82;8.60;;;10.60;99.90;;;;;;5095906;28;20040;-80
2023/04/24 01:39:25;;;;;;;11.35;8.85;;;10.60;99.90;;;;;;5096565;28;20125;-80
2023/04/24 01:41:55;;;;;;;11.55;8.38;;;10.60;99.90;;;;;;5096341;28;20036;-80
2023/04/24 01:44:21;;;;;;;13.88;8.60;;;10.60;99.90;;;;;;5096143;28;20388;-80
2023/04/24 01:46:47;;;;;;;12.02;8.43;;;10.60;99.90;;;;;;5095451;28;20048;-80
2023/04/24 01:49:13;;;;;;;12.75;8.85;;;10.70;99.90;;;;;;5096074;28;20467;-80
2023/04/24 01:51:38;;;;;;;12.15;8.90;;;10.60;99.90;;;;;;5096302;28;20488;-80
2023/04/24 01:54:05;;;;;;;13.75;8.82;;;10.60;99.90;;;;;;5096134;28;20044;-80
2023/04/24 01:56:33;;;;;;;12.23;8.32;;;10.60;99.90;;;;;;5096089;28;20491;-80
2023/04/24 01:59:00;;;;;;;10.52;7.97;;;10.50;99.90;;;;;;5096027;28;20165;-80
2023/04/24 02:01:26;;;;;;;10.88;7.85;;;10.50;99.90;;;;;;5096092;28;20044;-80
2023/04/24 02:03:51;;;;;;;9.95;6.82;;;10.60;99.90;;;;;;5096180;28;20189;-80
2023/04/24 02:06:17;;;;;;;8.75;5.60;;;10.50;99.90;;;;;;5095820;28;20047;-80
2023/04/24 02:08:42;;;;;;;9.68;5.80;;;10.40;99.90;;;;;;5094644;28;20201;-81
2023/04/24 02:11:11;;;;;;;8.57;5.75;;;10.30;99.90;;;;;;5095882;28;20036;-81
2023/04/24 02:13:37;;;;;;;10.35;5.32;;;10.30;99.90;;;;;;5094847;28;20130;-81
2023/04/24 02:16:02;;;;;;;9.82;5.68;;;10.40;99.90;;;;;;5095831;28;20127;-80
2023/04/24 02:18:28;;;;;;;7.40;4.80;;;10.30;99.90;;;;;;5095740;28;20048;-80
2023/04/24 02:20:53;;;;;;;7.63;5.05;;;10.30;99.90;;;;;;5095701;28;20364;-80
2023/04/24 02:23:20;;;;;;;8.15;5.18;;;10.20;99.90;;;;;;5095475;28;20055;-80
2023/04/24 02:25:46;;;;;;;9.45;5.65;;;10.30;99.90;;;;;;5095486;28;20044;-80
2023/04/24 02:28:11;;;;;;;8.55;5.10;;;10.20;99.90;;;;;;5095230;28;20048;-80
2023/04/24 02:30:37;;;;;;;9.25;5.93;;;10.20;99.90;;;;;;5095437;28;20043;-80
2023/04/24 02:33:03;;;;;;;10.27;5.97;;;10.20;99.90;;;;;;5095449;28;20036;-80
2023/04/24 02:35:28;;;;;;;8.65;6.07;;;10.20;99.90;;;;;;5095254;28;20460;-80
2023/04/24 02:37:54;;;;;;;10.25;6.60;;;10.20;99.90;;;;;;5095334;28;20036;-80
2023/04/24 02:40:20;;;;;;;11.07;6.57;;;10.20;99.90;;;;;;5095292;28;20489;-80
2023/04/24 02:42:45;;;;;;;8.70;5.97;;;10.20;99.90;;;;;;5095960;28;20036;-79
2023/04/24 02:45:11;;;;;;;9.82;6.07;;;10.20;99.90;;;;;;5095267;28;20082;-80
2023/04/24 02:47:36;;;;;;;12.25;6.63;;;10.20;99.90;;;;;;5094180;28;20039;-80
2023/04/24 02:50:03;;;;;;;10.75;6.93;;;10.20;99.90;;;;;;5095168;28;20036;-80
2023/04/24 02:52:28;;;;;;;9.30;6.60;;;10.20;99.90;;;;;;5095168;28;20052;-80
2023/04/24 02:54:54;;;;;;;10.32;6.97;;;10.20;99.90;;;;;;5093853;28;20123;-80
2023/04/24 02:57:20;;;;;;;11.68;7.15;;;10.20;99.90;;;;;;5095071;28;20048;-80
2023/04/24 02:59:45;;;;;;;9.98;7.00;;;10.20;99.90;;;;;;5094993;28;20042;-80
2023/04/24 03:02:11;;;;;;;9.82;6.95;;;10.20;99.90;;;;;;5093812;28;20388;-81
2023/04/24 03:04:36;;;;;;;13.77;8.02;;;10.20;99.90;;;;;;5094691;28;20047;-81
2023/04/24 03:07:02;;;;;;;11.85;7.30;;;10.20;99.90;;;;;;5094846;28;20093;-80
2023/04/24 03:09:28;;;;;;;11.48;7.70;;;10.20;99.90;;;;;;5093547;28;20040;-80
2023/04/24 03:11:53;;;;;;;11.10;7.40;;;10.30;99.90;;;;;;5094593;28;20059;-79
2023/04/24 03:14:19;;;;;;;14.63;9.13;;;10.20;99.90;;;;;;5094771;28;20384;-80
2023/04/24 03:16:44;;;;;;;13.63;8.65;;;10.30;99.90;;;;;;5094528;28;20499;-80
2023/04/24 03:19:10;;;;;;;15.90;9.00;;;10.30;99.90;;;;;;5093281;28;20387;-78
2023/04/24 03:21:40;;;;;;;15.43;9.95;;;10.40;99.90;;;;;;5094621;28;20067;-80
2023/04/24 03:24:09;;;;;;;16.02;10.27;;;10.40;99.90;;;;;;5093406;28;20056;-81
2023/04/24 03:26:35;;;;;;;17.10;9.20;;;10.30;99.90;;;;;;5094361;28;20040;-80
2023/04/24 03:29:01;;;;;;;13.93;7.18;;;10.40;99.90;;;;;;5094357;28;20398;-80
2023/04/24 03:31:26;;;;;;;11.60;5.95;;;10.40;99.90;;;;;;5093012;28;20047;-80
2023/04/24 03:33:52;;;;;;;12.75;6.68;;;10.40;99.90;;;;;;5094301;28;20043;-80
2023/04/24 03:36:19;;;;;;;14.82;7.13;;;10.50;99.90;;;;;;5094290;28;20079;-80
2023/04/24 03:38:45;;;;;;;13.65;6.78;;;10.40;99.90;;;;;;5094255;28;20683;-80
2023/04/24 03:41:12;;;;;;;12.20;6.57;;;10.40;99.90;;;;;;5093932;28;20079;-80
2023/04/24 03:43:39;;;;;;;11.48;5.25;;;10.40;99.90;;;;;;5092746;28;20052;-81
2023/04/24 03:46:04;;;;;;;10.98;4.72;;;10.40;99.90;;;;;;5094169;28;20036;-81
2023/04/24 03:48:30;;;;;;;8.48;4.82;;;10.40;99.90;;;;;;5092628;28;20040;-81
2023/04/24 03:50:56;;;;;;;9.25;4.82;;;10.40;99.90;;;;;;5093942;28;20085;-80
2023/04/24 03:53:21;;;;;;;11.20;5.35;;;10.40;99.90;;;;;;5093964;28;20043;-80
2023/04/24 03:55:47;;;;;;;8.55;5.18;;;10.40;99.90;;;;;;5092814;28;20105;-80
2023/04/24 03:58:15;;;;;;;9.20;5.25;;;10.40;99.90;;;;;;5093961;28;20460;-80
2023/04/24 04:00:41;;;;;;;9.90;4.95;;;10.40;99.90;;;;;;5093691;28;20368;-80
2023/04/24 04:03:07;;;;;;;8.73;4.75;;;10.40;99.90;;;;;;5093944;28;20040;-80
2023/04/24 04:05:32;;;;;;;9.60;5.30;;;10.40;99.90;;;;;;5093708;28;20092;-81
2023/04/24 04:07:58;;;;;;;8.80;4.55;;;10.30;99.90;;;;;;5093717;28;20046;-80
2023/04/24 04:10:23;;;;;;;7.72;4.65;;;10.30;99.90;;;;;;5093663;28;20101;-80
2023/04/24 04:12:49;;;;;;;7.78;3.95;;;10.30;99.90;;;;;;5093762;28;20040;-80
2023/04/24 04:15:15;;;;;;;7.47;3.85;;;10.40;99.90;;;;;;5092401;28;20480;-80
2023/04/24 04:17:41;;;;;;;7.95;4.10;;;10.30;99.90;;;;;;5093575;28;20036;-80
2023/04/24 04:20:09;;;;;;;8.43;3.95;;;10.30;99.90;;;;;;5092261;28;20040;-80
2023/04/24 04:22:36;;;;;;;5.93;2.78;;;10.30;99.90;;;;;;5093158;28;20514;-80
2023/04/24 04:25:02;;;;;;;6.28;3.42;;;10.30;99.90;;;;;;5093754;28;20058;-80
2023/04/24 04:27:31;;;;;;;6.22;3.13;;;10.30;99.90;;;;;;5093599;28;20055;-80
2023/04/24 04:30:04;;;;;;;6.63;3.35;;;10.30;99.90;;;;;;5093435;28;20488;-79
2023/04/24 04:32:33;;;;;;;7.53;4.00;;;10.30;99.90;;;;;;5092439;28;20104;-81
2023/04/24 04:35:02;;;;;;;8.95;4.90;;;10.30;99.90;;;;;;5093447;28;20055;-80
2023/04/24 04:37:29;;;;;;;10.40;4.63;;;10.30;99.90;;;;;;5093361;28;20053;-80
2023/04/24 04:39:55;;;;;;;7.68;3.80;;;10.20;99.90;;;;;;5093100;28;20471;-80
2023/04/24 04:42:21;;;;;;;8.05;2.67;;;10.30;99.90;;;;;;5092552;28;20140;-80
2023/04/24 04:44:46;;;;;;;4.78;2.22;;;10.30;99.90;;;;;;5092268;28;20033;-80
2023/04/24 04:47:12;;;;;;;6.57;2.90;;;10.20;99.90;;;;;;5092739;28;20105;-80
2023/04/24 04:49:38;;;;;;;7.47;3.60;;;10.20;99.90;;;;;;5093433;28;20048;-80
2023/04/24 04:52:04;;;;;;;7.93;3.75;;;10.30;99.90;;;;;;5093320;28;20040;-80
2023/04/24 04:54:30;;;;;;;7.68;3.67;;;10.30;99.90;;;;;;5091909;28;20044;-80
2023/04/24 04:56:57;;;;;;;9.52;4.88;;;10.30;99.90;;;;;;5093416;28;20040;-80
2023/04/24 04:59:22;;;;;;;7.53;3.50;;;10.30;99.90;;;;;;5093351;28;20119;-80
2023/04/24 05:01:48;;;;;;;7.78;4.07;;;10.20;99.90;;;;;;5093276;28;20118;-80
2023/04/24 05:04:14;;;;;;;6.38;4.03;;;10.30;99.90;;;;;;5093337;28;20079;-80
2023/04/24 05:06:39;;;;;;;8.20;3.47;;;10.20;99.90;;;;;;5093215;28;20439;-81
2023/04/24 05:09:07;;;;;;;5.55;2.28;;;10.10;99.90;;;;;;5093180;28;20048;-81
2023/04/24 05:11:32;;;;;;;7.15;2.90;;;10.20;99.90;;;;;;5094862;28;20036;-81
2023/04/24 05:13:58;;;;;;;4.72;1.95;;;10.20;99.90;;;;;;5096987;28;20176;-80
2023/04/24 05:16:24;;;;;;;4.95;1.90;;;10.10;99.90;;;;;;5096666;28;20111;-80
2023/04/24 05:18:49;;;;;;;6.55;2.08;;;10.10;99.90;;;;;;5096872;28;20494;-80
2023/04/24 05:21:15;;;;;;;6.38;2.60;;;10.10;99.90;;;;;;5096819;28;20543;-80
2023/04/24 05:23:47;;;;;;;4.95;2.13;;;10.10;99.90;;;;;;5096530;28;20063;-80
2023/04/24 05:26:14;;;;;;;6.40;2.35;;;10.10;99.90;;;;;;5096731;28;20157;-80
2023/04/24 05:28:40;;;;;;;4.85;2.40;;;10.10;99.90;;;;;;5096629;28;20051;-80
2023/04/24 05:31:06;;;;;;;6.75;2.80;;;10.10;99.90;;;;;;5095125;28;20043;-79
2023/04/24 05:33:32;;;;;;;5.30;2.38;;;10.10;99.90;;;;;;5096622;28;20127;-80
2023/04/24 05:35:57;;;;;;;6.03;2.70;;;10.20;99.90;;;;;;5096624;28;20040;-80
2023/04/24 05:38:23;;;;;;;6.07;2.85;;;10.20;99.90;;;;;;5096541;28;20048;-80
2023/04/24 05:40:48;;;;;;;6.43;2.88;;;10.20;99.90;;;;;;5095103;28;20044;-80
2023/04/24 05:43:14;;;;;;;7.20;2.92;;;10.10;99.90;;;;;;5096473;28;20048;-80
2023/04/24 05:45:40;;;;;;;8.75;2.95;;;10.10;99.90;;;;;;5096279;28;20535;-82
2023/04/24 05:48:05;;;;;;;10.45;3.47;;;10.10;99.90;;;;;;5096169;28;20388;-81
2023/04/24 05:50:31;;;;;;;6.47;3.53;;;10.20;99.90;;;;;;5096255;28;20040;-80
2023/04/24 05:53:01;;;;;;;5.05;2.92;;;10.20;99.90;;;;;;5096034;28;20117;-80
2023/04/24 05:55:27;;;;;;;5.18;2.85;;;10.20;99.90;;;;;;5096122;28;20790;-80
2023/04/24 05:57:53;;;;;;;6.57;2.60;;;10.20;99.90;;;;;;5095891;28;20036;-80
2023/04/24 06:00:19;;;;;;;7.15;2.65;;;10.30;99.90;;;;;;5094460;28;20113;-80
2023/04/24 06:02:46;;;;;;;8.23;3.13;;;10.20;99.90;;;;;;5094722;28;20048;-80
2023/04/24 06:05:12;;;;;;;4.82;2.10;;;10.30;99.90;;;;;;5095862;28;20075;-80
2023/04/24 06:07:37;;;;;;;5.68;2.53;;;10.30;99.90;;;;;;5095594;28;20083;-80
2023/04/24 06:10:03;;;;;;;4.78;1.80;;;10.30;99.90;;;;;;5095751;28;20040;-80
2023/04/24 06:12:29;;;;;;;5.38;3.10;;;10.30;99.90;;;;;;5095799;28;20044;-80
2023/04/24 06:14:57;;;;;;;4.60;2.97;;;10.30;99.90;;;;;;5095519;28;20466;-80
2023/04/24 06:17:23;;;;;;;7.53;2.38;;;10.40;99.90;;;;;;5095689;28;20040;-80
2023/04/24 06:19:48;;;;;;;7.60;2.67;;;10.30;99.90;;;;;;5094418;28;20051;-80
2023/04/24 06:22:20;;;;;;;8.05;2.90;;;10.30;99.90;;;;;;5095075;28;20094;-80
2023/04/24 06:24:48;;;;;;;6.85;2.67;;;10.30;99.90;;;;;;5095429;28;20040;-81
2023/04/24 06:27:14;;;;;;;5.40;2.42;;;10.30;99.90;;;;;;5095388;28;20039;-80
2023/04/24 06:29:40;;;;;;;5.57;2.22;;;10.30;99.90;;;;;;5095485;28;20134;-81
2023/04/24 06:32:05;;;;;;;8.55;2.47;;;10.30;99.90;;;;;;5095442;28;20050;-80
2023/04/24 06:34:32;;;;;;;7.43;2.72;;;10.30;99.90;;;;;;5095089;28;20089;-80
2023/04/24 06:36:58;;;;;;;5.45;2.60;;;10.20;99.90;;;;;;5094058;28;20636;-80
2023/04/24 06:39:24;;;;;;;6.82;2.45;;;10.30;99.90;;;;;;5095327;28;20122;-80
2023/04/24 06:41:49;;;;;;;10.80;2.90;;;10.10;99.90;;;;;;5094909;28;20051;-80
2023/04/24 06:44:16;;;;;;;8.18;2.08;;;10.20;99.90;;;;;;5095215;28;20055;-80
2023/04/24 06:46:42;;;;;;;4.50;1.83;;;10.10;99.90;;;;;;5095166;28;20202;-80
2023/04/24 06:49:07;;;;;;;4.97;1.83;;;10.20;99.90;;;;;;5095056;28;20130;-80
2023/04/24 06:51:33;;;;;;;6.20;1.65;;;10.10;99.90;;;;;;5094789;28;20538;-80
2023/04/24 06:53:59;;;;;;;7.68;1.70;;;10.00;99.90;;;;;;5095033;28;20039;-80
2023/04/24 06:56:26;;;;;;;6.63;1.80;;;9.90;99.90;;;;;;5094665;28;20036;-80
2023/04/24 06:58:51;;;;;;;4.60;1.92;;;10.10;99.90;;;;;;5094864;28;20043;-79
2023/04/24 07:01:17;;;;;;;8.43;2.78;;;10.10;99.90;;;;;;5094752;28;20048;-79
2023/04/24 07:03:43;;;;;;;7.45;2.70;;;10.10;99.90;;;;;;5095316;28;20047;-79
2023/04/24 07:06:11;;;;;;;7.32;3.13;;;10.10;99.90;;;;;;5094714;28;20040;-79
2023/04/24 07:08:36;;;;;;;9.00;4.90;;;10.10;99.90;;;;;;5094400;28;20117;-80
2023/04/24 07:11:02;;;;;;;10.88;5.85;;;10.00;99.90;;;;;;5094680;28;20089;-79
2023/04/24 07:13:28;;;;;;;16.40;6.63;;;10.00;99.90;;;;;;5094698;28;20040;-80
2023/04/24 07:15:55;;;;;;;17.20;7.78;;;9.90;99.90;;;;;;5094411;28;20518;-80
2023/04/24 07:18:22;;;;;;;15.65;7.32;;;9.90;99.90;;;;;;5094600;28;20403;-80
2023/04/24 07:20:47;;;;;;;16.38;7.15;;;9.80;99.90;;;;;;5094559;28;20096;-80
2023/04/24 07:23:19;;;;;;;19.70;7.88;;;9.80;99.90;;;;;;5094193;28;20422;-78
2023/04/24 07:25:46;;;;;;;19.48;9.85;;;9.80;99.90;;;;;;5094335;28;20137;-80
2023/04/24 07:28:12;;;;;;;26.98;12.15;;;9.90;99.90;;;;;;5094323;28;20044;-79
2023/04/24 07:30:38;;;;;;;27.63;13.63;;;9.90;99.90;;;;;;5094315;28;20121;-80
2023/04/24 07:33:06;;;;;;;22.98;10.70;;;9.90;99.90;;;;;;5094134;28;20075;-81
2023/04/24 07:35:33;;;;;;;24.90;10.48;;;9.80;99.90;;;;;;5094014;28;20040;-80
2023/04/24 07:37:58;;;;;;;24.45;11.65;;;9.80;99.90;;;;;;5094147;28;20040;-80
2023/04/24 07:40:24;;;;;;;27.08;10.18;;;9.80;99.90;;;;;;5094143;28;20117;-80
2023/04/24 07:42:50;;;;;;;25.25;10.65;;;9.80;99.90;;;;;;5094144;28;20040;-80
2023/04/24 07:45:15;;;;;;;22.27;11.18;;;9.80;99.90;;;;;;5092924;28;20044;-80
2023/04/24 07:47:43;;;;;;;29.17;13.25;;;9.80;99.90;;;;;;5084728;28;20446;-79
2023/04/24 07:50:09;;;;;;;25.45;12.20;;;9.70;99.90;;;;;;5073682;28;20048;-79
2023/04/24 07:52:36;;;;;;;21.45;11.73;;;9.70;99.90;;;;;;5073301;28;20472;-79
2023/04/24 07:55:02;;;;;;;23.20;11.98;;;9.70;99.90;;;;;;5073543;28;20048;-80
2023/04/24 07:57:28;;;;;;;20.27;10.23;;;9.80;99.90;;;;;;5073458;28;20484;-81
2023/04/24 07:59:54;;;;;;;18.40;9.15;;;9.70;99.90;;;;;;5073366;28;20055;-80
2023/04/24 08:02:21;;;;;;;15.07;8.07;;;9.70;99.90;;;;;;5073327;28;20041;-79
2023/04/24 08:04:47;;;;;;;19.48;10.52;;;9.70;99.90;;;;;;5082986;28;20059;-80
2023/04/24 08:07:12;;;;;;;20.75;9.60;;;9.70;99.90;;;;;;5092313;28;20051;-80
2023/04/24 08:09:38;;;;;;;23.02;10.55;;;9.70;99.90;;;;;;5093414;28;20058;-80
2023/04/24 08:12:04;;;;;;;18.10;9.07;;;9.60;99.90;;;;;;5092299;28;20048;-80
2023/04/24 08:14:30;;;;;;;22.83;8.32;;;9.60;99.90;;;;;;5093620;28;20098;-82
2023/04/24 08:16:56;;;;;;;19.60;9.57;;;9.50;99.90;;;;;;5089679;28;20040;-80
2023/04/24 08:19:21;;;;;;;19.83;9.00;;;9.60;99.90;;;;;;5081972;28;20037;-82
2023/04/24 08:21:47;;;;;;;19.55;8.90;;;9.60;99.90;;;;;;5073508;28;20052;-80
2023/04/24 08:24:15;;;;;;;19.48;7.63;;;9.60;99.90;;;;;;5073110;28;20504;-81
2023/04/24 08:26:41;;;;;;;19.48;8.70;;;9.50;99.90;;;;;;5073325;28;20060;-82
2023/04/24 08:29:06;;;;;;;17.58;7.72;;;9.50;99.90;;;;;;5073211;28;20483;-82
2023/04/24 08:31:32;;;;;;;21.48;9.70;;;9.50;99.90;;;;;;5072777;28;20120;-82
2023/04/24 08:33:59;;;;;;;16.90;8.07;;;9.60;99.90;;;;;;5073258;28;20514;-80
2023/04/24 08:36:28;;;;;;;13.18;7.25;;;9.60;99.90;;;;;;5072959;28;20048;-80
2023/04/24 08:38:53;;;;;;;12.52;6.40;;;9.60;99.90;;;;;;5072881;28;20106;-84
2023/04/24 08:41:19;;;;;;;14.52;6.80;;;9.80;99.90;;;;;;5073117;28;20041;-80
2023/04/24 08:43:49;;;;;;;15.25;6.78;;;9.80;99.90;;;;;;5073192;28;20056;-81
2023/04/24 08:46:16;;;;;;;14.77;6.80;;;9.80;99.90;;;;;;5074317;28;20068;-81
2023/04/24 08:48:42;;;;;;;12.88;7.07;;;9.80;99.90;;;;;;5076782;28;20052;-82
2023/04/24 08:51:08;;;;;;;9.10;4.85;;;9.80;99.90;;;;;;5076675;28;20090;-81
2023/04/24 08:53:35;;;;;;;20.85;5.85;;;9.80;99.90;;;;;;5076616;28;20036;-81
2023/04/24 08:56:02;;;;;;;13.05;6.20;;;9.80;99.90;;;;;;5075347;28;20049;-82
2023/04/24 08:58:28;;;;;;;12.02;5.97;;;9.70;99.90;;;;;;5076751;28;20044;-82
2023/04/24 09:00:57;;;;;;;12.90;7.03;;;9.80;99.90;;;;;;5076660;28;20056;-82
2023/04/24 09:03:23;;;;;;;13.00;5.93;;;9.80;99.90;;;;;;5076774;28;20040;-82
2023/04/24 09:05:50;;;;;;;15.13;6.55;;;9.80;99.90;;;;;;5076378;28;20055;-81
2023/04/24 09:08:19;;;;;;;17.63;5.32;;;9.80;99.90;;;;;;5075061;28;20052;-81
2023/04/24 09:10:45;;;;;;;15.57;5.40;;;9.80;99.90;;;;;;5075319;28;20124;-82
2023/04/24 09:13:11;;;;;;;16.77;5.65;;;9.70;99.90;;;;;;5076529;28;20186;-82
2023/04/24 09:15:38;;;;;;;11.07;4.53;;;9.70;99.90;;;;;;5076468;28;20048;-82
2023/04/24 09:18:04;;;;;;;14.02;5.70;;;9.80;99.90;;;;;;5076409;28;20072;-82
2023/04/24 09:20:31;;;;;;;9.60;3.72;;;9.80;99.90;;;;;;5076353;28;20125;-82
2023/04/24 09:22:58;;;;;;;9.77;3.65;;;9.80;99.90;;;;;;5076336;28;20105;-83
2023/04/24 09:25:35;;;;;;;16.98;6.65;;;9.90;99.90;;;;;;5076291;28;20044;-82
2023/04/24 09:28:06;;;;;;;13.70;4.68;;;10.00;99.90;;;;;;5076186;28;20036;-82
2023/04/24 09:30:32;;;;;;;13.63;5.60;;;10.10;99.90;;;;;;5075939;28;20062;-82
2023/04/24 09:33:10;;;;;;;12.23;4.80;;;10.30;99.90;;;;;;5076229;28;20032;-81
2023/04/24 09:35:36;;;;;;;8.82;4.60;;;10.40;99.90;;;;;;5075808;28;20404;-81
2023/04/24 09:38:02;;;;;;;10.98;4.75;;;10.40;99.90;;;;;;5075885;28;20051;-81
2023/04/24 09:40:27;;;;;;;8.80;3.53;;;10.40;99.90;;;;;;5075605;28;20532;-81
2023/04/24 09:42:56;;;;;;;9.02;4.13;;;10.50;99.90;;;;;;5075731;28;20052;-81
2023/04/24 09:45:27;;;;;;;7.85;3.75;;;10.50;99.90;;;;;;5075531;28;20487;-81
2023/04/24 09:47:53;;;;;;;10.35;3.95;;;10.50;99.90;;;;;;5075824;28;20044;-81
2023/04/24 09:50:19;;;;;;;13.63;3.95;;;10.50;99.90;;;;;;5075616;28;20503;-81
2023/04/24 09:52:55;;;;;;;15.13;4.78;;;10.60;99.90;;;;;;5075507;28;20053;-81
2023/04/24 09:55:21;;;;;;;4.80;2.25;;;10.60;99.90;;;;;;5075580;28;20044;-81
2023/04/24 09:58:00;;;;;;;14.55;3.40;;;10.70;99.90;;;;;;5075008;28;20055;-80
2023/04/24 10:00:28;;;;;;;9.90;4.72;;;10.70;99.90;;;;;;5075782;28;20041;-80
2023/04/24 10:03:00;;;;;;;6.65;3.22;;;10.90;99.90;;;;;;5075561;28;20051;-80
2023/04/24 10:05:33;;;;;;;13.10;3.63;;;10.90;99.90;;;;;;5075682;28;20071;-80
2023/04/24 10:08:06;;;;;;;6.38;2.58;;;11.00;99.90;;;;;;5075237;28;20532;-81
2023/04/24 10:10:34;;;;;;;11.55;3.40;;;11.00;99.90;;;;;;5075614;28;20078;-80
2023/04/24 10:13:01;;;;;;;11.70;3.97;;;11.10;99.90;;;;;;5075382;28;20098;-80
2023/04/24 10:15:27;;;;;;;8.07;3.60;;;11.10;99.90;;;;;;5075113;28;20139;-82
2023/04/24 10:17:53;;;;;;;10.75;3.58;;;10.90;99.90;;;;;;5074174;28;20131;-82
2023/04/24 10:20:24;;;;;;;13.48;3.83;;;10.90;99.90;;;;;;5075458;28;20123;-84
2023/04/24 10:22:51;;;;;;;10.82;2.38;;;10.90;99.90;;;;;;5081418;28;20056;-80
2023/04/24 10:25:20;;;;;;;7.82;2.53;;;10.90;99.90;;;;;;5088369;28;20106;-82
2023/04/24 10:27:46;;;;;;;13.32;3.85;;;10.80;99.90;;;;;;5089256;28;20161;-82
2023/04/24 10:30:13;;;;;;;12.40;2.83;;;10.80;99.90;;;;;;5091619;28;20127;-82
2023/04/24 10:32:38;;;;;;;11.90;3.28;;;10.80;99.90;;;;;;5090000;28;20583;-82
2023/04/24 10:35:07;;;;;;;11.95;3.08;;;10.80;99.90;;;;;;5090811;28;20043;-81
2023/04/24 10:37:46;;;;;;;8.15;2.38;;;10.90;99.90;;;;;;5089553;28;20445;-82
2023/04/24 10:40:17;;;;;;;9.52;2.92;;;10.90;99.90;;;;;;5091522;28;20082;-83
2023/04/24 10:42:47;;;;;;;13.75;2.80;;;11.00;99.90;;;;;;5091022;28;20101;-82
2023/04/24 10:45:18;;;;;;;10.82;2.60;;;11.00;99.90;;;;;;5090659;28;20043;-82
2023/04/24 10:48:03;;;;;;;8.05;2.22;;;11.00;99.90;;;;;;5089822;28;20048;-82
2023/04/24 10:50:41;;;;;;;9.60;3.05;;;11.00;99.90;;;;;;5089059;28;20131;-83
2023/04/24 10:53:11;;;;;;;8.65;1.98;;;10.90;99.90;;;;;;5089767;28;20510;-82
2023/04/24 10:55:51;;;;;;;10.43;2.28;;;10.90;99.90;;;;;;5089818;28;20096;-82
2023/04/24 10:58:22;;;;;;;9.23;2.05;;;10.90;99.90;;;;;;5089792;28;20437;-82
2023/04/24 11:00:57;;;;;;;8.23;2.28;;;10.80;99.90;;;;;;5090265;28;20047;-82
2023/04/24 11:03:24;;;;;;;10.95;2.75;;;10.90;99.90;;;;;;5089617;28;20043;-80
2023/04/24 11:06:06;;;;;;;9.45;2.47;;;10.90;99.90;;;;;;5090822;28;20060;-82
2023/04/24 11:08:45;;;;;;;10.77;2.37;;;10.90;99.90;;;;;;5088498;28;20441;-83
2023/04/24 11:11:16;;;;;;;10.27;2.63;;;10.80;99.90;;;;;;5088717;28;20119;-82
2023/04/24 11:13:54;;;;;;;11.40;2.40;;;10.80;99.90;;;;;;5089706;28;20486;-82
2023/04/24 11:16:29;;;;;;;12.23;3.90;;;10.80;99.90;;;;;;5090220;28;20075;-82
2023/04/24 11:19:19;;;;;;;7.10;2.40;;;10.80;99.90;;;;;;5090316;28;20044;-81
2023/04/24 11:22:00;;;;;;;9.07;2.53;;;10.80;99.90;;;;;;5089284;28;20376;-83
2023/04/24 11:24:30;;;;;;;14.27;2.22;;;10.80;99.90;;;;;;5087922;28;20082;-83
2023/04/24 11:27:09;;;;;;;6.97;1.90;;;10.80;99.90;;;;;;5089109;28;20495;-82
2023/04/24 11:29:46;;;;;;;10.10;2.15;;;10.70;99.90;;;;;;5087886;28;20134;-83
2023/04/24 11:32:15;;;;;;;13.75;2.58;;;10.70;99.90;;;;;;5089242;28;20742;-83
2023/04/24 11:34:44;;;;;;;6.50;1.83;;;10.70;99.90;;;;;;5089111;28;20441;-83
2023/04/24 11:37:10;;;;;;;7.43;1.77;;;10.60;99.90;;;;;;5088607;28;20051;-82
2023/04/24 11:39:37;;;;;;;7.75;1.50;;;10.70;99.90;;;;;;5088109;28;20055;-82
2023/04/24 11:42:05;;;;;;;6.88;1.95;;;10.60;99.90;;;;;;5089018;28;20056;-82
2023/04/24 11:44:33;;;;;;;6.80;1.30;;;10.60;99.90;;;;;;5069710;28;20044;-85
2023/04/24 11:46:58;;;;;;;12.70;1.60;;;10.60;99.90;;;;;;5102174;28;20604;-83
2023/04/24 11:49:24;;;;;;;7.07;1.20;;;10.50;99.90;;;;;;5086482;28;20040;-82
2023/04/24 11:51:49;;;;;;;7.68;1.83;;;10.50;99.90;;;;;;5090087;28;20119;-81
2023/04/24 11:54:15;;;;;;;7.40;2.22;;;10.40;99.90;;;;;;5088709;28;20450;-83
2023/04/24 11:56:46;;;;;;;8.98;2.00;;;10.50;99.90;;;;;;5087681;28;20051;-83
2023/04/24 11:59:12;;;;;;;9.05;1.70;;;10.40;99.90;;;;;;5089529;28;20040;-83
2023/04/24 12:01:47;;;;;;;7.20;1.90;;;10.50;99.90;;;;;;5088131;28;20062;-83
2023/04/24 12:04:14;;;;;;;10.95;1.83;;;10.50;99.90;;;;;;5087518;28;20109;-83
2023/04/24 12:06:58;;;;;;;8.05;2.05;;;10.50;99.90;;;;;;5087512;28;20044;-81
2023/04/24 12:09:23;;;;;;;7.10;1.70;;;10.50;99.90;;;;;;5088813;28;20043;-82
2023/04/24 12:11:56;;;;;;;7.88;1.65;;;10.40;99.90;;;;;;5087770;28;20135;-82
2023/04/24 12:14:22;;;;;;;11.73;3.95;;;10.30;99.90;;;;;;5089207;28;20093;-81
2023/04/24 12:16:50;;;;;;;8.55;2.67;;;10.20;99.90;;;;;;5089227;28;20895;-83
2023/04/24 12:19:22;;;;;;;10.88;3.70;;;10.20;99.90;;;;;;5088414;28;20040;-82
2023/04/24 12:22:01;;;;;;;5.32;1.90;;;10.20;99.90;;;;;;5096379;28;20063;-82
2023/04/24 12:24:26;;;;;;;6.00;1.67;;;10.10;99.90;;;;;;5099836;28;20051;-87
2023/04/24 12:26:54;;;;;;;3.15;1.13;;;10.20;99.90;;;;;;5098807;28;20073;-81
2023/04/24 12:29:24;;;;;;;7.28;1.40;;;10.20;99.90;;;;;;5099982;28;20131;-80
2023/04/24 12:31:51;;;;;;;9.85;2.97;;;10.20;99.90;;;;;;5099878;28;20368;-81
2023/04/24 12:34:21;;;;;;;11.90;2.30;;;10.30;99.90;;;;;;5099928;28;20501;-81
2023/04/24 12:36:48;;;;;;;8.18;1.40;;;10.30;99.90;;;;;;5099904;28;20475;-80
2023/04/24 12:39:18;;;;;;;10.25;1.92;;;10.20;99.90;;;;;;5099808;28;20055;-80
2023/04/24 12:42:00;;;;;;;8.88;2.35;;;10.20;99.90;;;;;;5100098;28;20040;-80
2023/04/24 12:44:34;;;;;;;12.68;4.75;;;10.20;99.90;;;;;;5099652;28;20445;-80